Boeing Field King County International Airport
KBFI : now visible

Airfield :











YOU CAN JOIN US ON...

 
LOGIN :

Register | Disclaimer

   EN    FR    IT 

 









Legend :    VFR   Marginal VFR   IFR   Intensive IFR   Very Intensive IFR
Visi :
Ceiling :
>= 8 km
>= 3000ft
5 to 8 km
1000 to 3000 ft
1500m to 5 km
500 to 1000 ft
800 to 1500m
200 to 500 ft
< 800m
< 200 ft
Symbols :   Thunderstorms  Fog  Heavy snow  Heavy precipitations  Wind > 20 kt






- Airport Elevation : 21 ft
- IATA code : BFI


KBFI - Boeing Field King County International

CURRENT METAR :
  • 241853Z 13006KT 10SM BKN022 OVC100 14/09 A3011 RMK AO2 SLP196 T01390089

EXPIRED METARs :
  • 241753Z 20006KT 10SM BKN022 OVC150 14/09 A3011 RMK AO2 SLP197 T01390094 10139 20111 53000
  • 241653Z 23006KT 10SM BKN022 13/09 A3012 RMK AO2 SLP198 T01280089

TAF KBFI
Valid from the 24 at 18:00 until the 25 at 18:00 UTC


241720Z 2418/2518 23006KT P6SM BKN020
FM242000 18006KT P6SM BKN050 OVC200
FM251100 15006KT P6SM OVC025
KZSE FIR / North America



MET'MAP, your aeronautical weather chart ! - Copyright ORBIFLY December 2007 - Disclaimer

ORBIFLY MET'MAP TEAM :

Programming & Development : Alexandra Zaïnal
Original concept : Baudouin d'Aumeries
Technical & hardware support : Manuel Goepfert
Assistance : Marc-Olivier Méhu

Contact : metmap@orbifly.com




SOURCES & CREDITS :

   NOAA       Earth
Advisory